createdAt,value
2019-04-03T00:02:15.548Z,16.26
2019-04-03T00:04:43.813Z,16.17
2019-04-03T00:07:12.099Z,16.11
2019-04-03T00:09:40.290Z,16.04
2019-04-03T00:12:10.531Z,15.98
2019-04-03T00:14:39.090Z,15.94
2019-04-03T00:17:07.431Z,15.86
2019-04-03T00:19:35.800Z,15.76
2019-04-03T00:22:03.857Z,15.64
2019-04-03T00:24:33.447Z,15.57
2019-04-03T00:27:01.613Z,15.52
2019-04-03T00:29:29.689Z,15.47
2019-04-03T00:31:57.742Z,15.44
2019-04-03T00:34:26.288Z,15.40
2019-04-03T00:36:54.356Z,15.37
2019-04-03T00:39:23.981Z,15.34
2019-04-03T00:41:52.942Z,15.32
2019-04-03T00:44:24.231Z,15.28
2019-04-03T00:46:53.814Z,15.23
2019-04-03T00:49:22.789Z,15.19
2019-04-03T00:51:51.519Z,15.16
2019-04-03T00:54:19.938Z,15.13
2019-04-03T00:56:48.009Z,15.10
2019-04-03T00:59:16.084Z,15.05
2019-04-03T01:01:44.206Z,14.98
2019-04-03T01:04:12.439Z,14.94
2019-04-03T01:06:40.472Z,14.89
2019-04-03T01:09:08.573Z,14.82
2019-04-03T01:11:36.610Z,14.75
2019-04-03T01:14:04.780Z,14.70
2019-04-03T01:16:33.572Z,14.67
2019-04-03T01:19:01.759Z,14.65
2019-04-03T01:21:30.491Z,14.64
2019-04-03T01:23:58.637Z,14.63
2019-04-03T01:26:27.075Z,14.62
2019-04-03T01:28:55.268Z,14.58
2019-04-03T01:31:23.373Z,14.56
2019-04-03T01:33:51.672Z,14.50
2019-04-03T01:36:19.806Z,14.40
2019-04-03T01:38:49.500Z,14.36
2019-04-03T01:41:18.839Z,14.31
2019-04-03T01:43:49.514Z,14.26
2019-04-03T01:46:17.640Z,14.21
2019-04-03T01:48:45.727Z,14.18
2019-04-03T01:51:13.904Z,14.14
2019-04-03T01:53:42.001Z,14.10
2019-04-03T01:56:10.116Z,14.06
2019-04-03T01:58:38.235Z,14.02
2019-04-03T02:01:07.938Z,13.94
2019-04-03T02:03:36.281Z,13.87
2019-04-03T02:06:04.375Z,13.82
2019-04-03T02:08:32.497Z,13.77
2019-04-03T02:11:02.171Z,13.75
2019-04-03T02:13:30.233Z,13.71
2019-04-03T02:15:59.919Z,13.67
2019-04-03T02:18:29.427Z,13.58
2019-04-03T02:20:58.169Z,13.50
2019-04-03T02:23:26.223Z,13.48
2019-04-03T02:25:55.638Z,13.47
2019-04-03T02:28:23.787Z,13.40
2019-04-03T02:30:52.941Z,13.32
2019-04-03T02:33:20.991Z,13.29
2019-04-03T02:35:49.076Z,13.26
2019-04-03T02:38:17.171Z,13.27
2019-04-03T02:40:45.288Z,13.27
2019-04-03T02:43:14.106Z,13.25
2019-04-03T02:45:43.236Z,13.23
2019-04-03T02:48:11.401Z,13.24
2019-04-03T02:50:39.601Z,13.21
2019-04-03T02:53:08.070Z,13.21
2019-04-03T02:55:39.136Z,13.19
2019-04-03T02:58:07.416Z,13.19
2019-04-03T03:00:36.437Z,13.15
2019-04-03T03:03:04.526Z,13.13
2019-04-03T03:05:33.505Z,13.10
2019-04-03T03:08:02.590Z,13.10
2019-04-03T03:10:32.526Z,13.08
2019-04-03T03:13:02.347Z,13.06
2019-04-03T03:15:31.257Z,13.07
2019-04-03T03:18:01.520Z,13.09
2019-04-03T03:20:31.594Z,13.10
2019-04-03T03:23:01.170Z,13.09
2019-04-03T03:25:32.149Z,13.11
2019-04-03T03:28:01.911Z,13.11
2019-04-03T03:30:42.008Z,13.12
2019-04-03T03:33:25.160Z,13.12
2019-04-03T03:35:40.427Z,13.13
2019-04-03T03:38:04.637Z,13.15
2019-04-03T03:40:34.592Z,13.15
2019-04-03T03:43:05.117Z,13.10
2019-04-03T03:45:33.708Z,13.09
2019-04-03T03:48:05.681Z,13.05
2019-04-03T03:50:36.056Z,13.04
2019-04-03T03:53:05.153Z,13.02
2019-04-03T03:55:34.855Z,13.00
2019-04-03T03:58:03.576Z,12.99
2019-04-03T04:00:32.368Z,12.98
2019-04-03T04:03:00.845Z,13.01
2019-04-03T04:05:29.417Z,13.01
2019-04-03T04:07:57.865Z,13.03
2019-04-03T04:10:28.610Z,13.04
2019-04-03T04:12:57.911Z,13.06
2019-04-03T04:15:30.475Z,13.05
2019-04-03T04:17:57.952Z,13.06
2019-04-03T04:20:27.199Z,13.07
2019-04-03T04:22:55.276Z,13.07
2019-04-03T04:25:23.726Z,13.07
2019-04-03T04:27:52.082Z,13.09
2019-04-03T04:30:20.286Z,13.10
2019-04-03T04:32:48.364Z,13.09
2019-04-03T04:35:16.414Z,13.09
2019-04-03T04:37:44.521Z,13.11
2019-04-03T04:40:12.799Z,13.13
2019-04-03T04:42:40.980Z,13.13
2019-04-03T04:45:09.785Z,13.11
2019-04-03T04:47:39.337Z,13.12
2019-04-03T04:50:07.535Z,13.10
2019-04-03T04:52:36.797Z,13.10
2019-04-03T04:55:04.836Z,13.14
2019-04-03T04:57:33.419Z,13.16
2019-04-03T05:00:03.150Z,13.18
2019-04-03T05:02:31.350Z,13.19
2019-04-03T05:04:59.646Z,13.18
2019-04-03T05:07:28.848Z,13.19
2019-04-03T05:09:58.106Z,13.19
2019-04-03T05:12:26.423Z,13.22
2019-04-03T05:14:54.550Z,13.21
2019-04-03T05:17:26.134Z,13.21
2019-04-03T05:19:54.054Z,13.22
2019-04-03T05:22:23.970Z,13.21
2019-04-03T05:24:52.413Z,13.21
2019-04-03T05:27:20.516Z,13.21
2019-04-03T05:29:48.621Z,13.23
2019-04-03T05:32:16.700Z,13.23
2019-04-03T05:34:45.090Z,13.25
2019-04-03T05:37:14.451Z,13.24
2019-04-03T05:39:42.535Z,13.26
2019-04-03T05:42:10.715Z,13.28
2019-04-03T05:44:39.466Z,13.31
2019-04-03T05:47:08.545Z,13.34
2019-04-03T05:49:36.670Z,13.37
2019-04-03T05:52:04.916Z,13.39
2019-04-03T05:54:32.950Z,13.41
2019-04-03T05:57:01.070Z,13.44
2019-04-03T05:59:29.058Z,13.45
2019-04-03T06:01:57.162Z,13.48
2019-04-03T06:04:25.351Z,13.49
2019-04-03T06:06:53.843Z,13.50
2019-04-03T06:09:23.203Z,13.52
2019-04-03T06:11:52.419Z,13.54
2019-04-03T06:14:23.184Z,13.55
2019-04-03T06:16:50.838Z,13.59
2019-04-03T06:19:18.915Z,13.61
2019-04-03T06:21:47.039Z,13.63
2019-04-03T06:24:17.796Z,13.64
2019-04-03T06:26:47.425Z,13.64
2019-04-03T06:29:16.909Z,13.64
2019-04-03T06:31:45.413Z,13.65
2019-04-03T06:34:13.393Z,13.66
2019-04-03T06:36:41.567Z,13.69
2019-04-03T06:39:09.751Z,13.71
2019-04-03T06:41:38.160Z,13.72
2019-04-03T06:44:06.225Z,13.74
2019-04-03T06:46:34.653Z,13.74
2019-04-03T06:49:02.713Z,13.74
2019-04-03T06:51:30.726Z,13.75
2019-04-03T06:53:59.910Z,13.76
2019-04-03T06:56:28.049Z,13.76
2019-04-03T06:58:56.131Z,13.75
2019-04-03T07:01:24.192Z,13.73
2019-04-03T07:03:52.390Z,13.69
2019-04-03T07:06:20.694Z,13.65
2019-04-03T07:08:48.917Z,13.65
2019-04-03T07:11:23.412Z,13.65
2019-04-03T07:13:48.428Z,13.63
2019-04-03T07:16:16.476Z,13.61
2019-04-03T07:18:44.770Z,13.56
2019-04-03T07:21:12.834Z,13.51
2019-04-03T07:23:41.150Z,13.48
2019-04-03T07:26:09.290Z,13.46
2019-04-03T07:28:38.917Z,13.44
2019-04-03T07:31:08.631Z,13.43
2019-04-03T07:33:36.787Z,13.37
2019-04-03T07:36:05.898Z,13.34
2019-04-03T07:38:35.061Z,13.32
2019-04-03T07:41:04.009Z,13.31
2019-04-03T07:43:32.137Z,13.32
2019-04-03T07:46:01.670Z,13.33
2019-04-03T07:48:33.300Z,13.29
2019-04-03T07:51:01.899Z,13.24
2019-04-03T07:53:30.127Z,13.29
2019-04-03T07:55:58.549Z,13.30
2019-04-03T07:58:26.641Z,13.30
2019-04-03T08:00:54.648Z,13.32
2019-04-03T08:03:22.672Z,13.35
2019-04-03T08:05:51.042Z,13.35
2019-04-03T08:08:19.087Z,13.33
2019-04-03T08:10:47.468Z,13.34
2019-04-03T08:13:15.519Z,13.34
2019-04-03T08:15:44.497Z,13.38
2019-04-03T08:18:13.979Z,13.39
2019-04-03T08:20:42.236Z,13.37
2019-04-03T08:23:10.258Z,13.41
2019-04-03T08:25:38.559Z,13.42
2019-04-03T08:28:06.621Z,13.44
2019-04-03T08:30:34.643Z,13.44
2019-04-03T08:33:14.881Z,13.47
2019-04-03T08:35:35.090Z,13.48
2019-04-03T08:38:02.701Z,13.49
2019-04-03T08:40:31.225Z,13.51
2019-04-03T08:43:00.379Z,13.51
2019-04-03T08:45:28.939Z,13.51
2019-04-03T08:47:57.023Z,13.57
2019-04-03T08:50:25.064Z,13.61
2019-04-03T08:52:53.119Z,13.65
2019-04-03T08:55:21.594Z,13.68
2019-04-03T08:57:52.086Z,13.64
2019-04-03T09:00:19.956Z,13.59
2019-04-03T09:02:48.238Z,13.54
2019-04-03T09:05:18.999Z,13.48
2019-04-03T09:07:46.331Z,13.39
2019-04-03T09:10:16.963Z,13.30
2019-04-03T09:12:45.338Z,13.22
2019-04-03T09:15:13.540Z,13.13
2019-04-03T09:17:41.552Z,13.03
2019-04-03T09:20:12.858Z,12.95
2019-04-03T09:22:39.811Z,12.86
2019-04-03T09:25:08.157Z,12.80
2019-04-03T09:27:36.202Z,12.73
2019-04-03T09:30:08.506Z,12.67
2019-04-03T09:32:37.540Z,12.62
2019-04-03T09:35:07.120Z,12.55
2019-04-03T09:37:38.039Z,12.51
2019-04-03T09:40:07.832Z,12.47
2019-04-03T09:42:36.269Z,12.45
2019-04-03T09:45:05.677Z,12.43
2019-04-03T09:47:34.998Z,12.40
2019-04-03T09:50:08.652Z,12.37
2019-04-03T09:52:41.741Z,12.32
2019-04-03T09:55:07.283Z,12.28
2019-04-03T09:57:36.582Z,12.22
2019-04-03T10:00:10.604Z,12.19
2019-04-03T10:02:38.196Z,12.19
2019-04-03T10:05:06.768Z,12.19
2019-04-03T10:07:36.306Z,12.19
2019-04-03T10:10:07.120Z,12.22
2019-04-03T10:12:35.228Z,12.23
2019-04-03T10:15:04.317Z,12.27
2019-04-03T10:17:32.322Z,12.33
2019-04-03T10:20:00.996Z,12.36
2019-04-03T10:22:29.426Z,12.41
2019-04-03T10:25:00.079Z,12.43
2019-04-03T10:27:28.147Z,12.47
2019-04-03T10:29:56.617Z,12.50
2019-04-03T10:32:27.225Z,12.54
2019-04-03T10:34:57.409Z,12.57
2019-04-03T10:37:24.916Z,12.61
2019-04-03T10:39:53.542Z,12.63
2019-04-03T10:42:21.859Z,12.65
2019-04-03T10:44:50.197Z,12.65
2019-04-03T10:47:20.793Z,12.63
2019-04-03T10:49:48.333Z,12.63
2019-04-03T10:52:16.359Z,12.61
2019-04-03T10:54:44.653Z,12.57
2019-04-03T10:57:12.832Z,12.53
2019-04-03T10:59:40.894Z,12.49
2019-04-03T11:02:09.401Z,12.45
2019-04-03T11:04:37.491Z,12.43
2019-04-03T11:07:05.827Z,12.39
2019-04-03T11:09:33.922Z,12.37
2019-04-03T11:12:01.916Z,12.35
2019-04-03T11:14:29.956Z,12.33
2019-04-03T11:16:58.166Z,12.32
2019-04-03T11:19:26.454Z,12.28
2019-04-03T11:21:56.788Z,12.25
2019-04-03T11:24:24.834Z,12.22
2019-04-03T11:26:53.196Z,12.19
2019-04-03T11:29:21.715Z,12.17
2019-04-03T11:31:49.707Z,12.14
2019-04-03T11:34:18.526Z,12.12
2019-04-03T11:36:47.207Z,12.10
2019-04-03T11:39:16.252Z,12.08
2019-04-03T11:41:45.976Z,12.06
2019-04-03T11:44:13.990Z,12.06
2019-04-03T11:46:42.385Z,12.02
2019-04-03T11:49:11.709Z,11.99
2019-04-03T11:51:39.639Z,11.96
2019-04-03T11:54:09.203Z,11.93
2019-04-03T11:56:37.396Z,11.90
2019-04-03T11:59:05.466Z,11.88
2019-04-03T12:01:33.573Z,11.89
2019-04-03T12:04:01.694Z,11.88
2019-04-03T12:06:29.757Z,11.87
2019-04-03T12:09:00.923Z,11.85
2019-04-03T12:11:28.704Z,11.84
2019-04-03T12:13:57.232Z,11.81
2019-04-03T12:16:26.216Z,11.78
2019-04-03T12:18:54.983Z,11.76
2019-04-03T12:21:23.193Z,11.75
2019-04-03T12:23:51.210Z,11.74
2019-04-03T12:26:20.880Z,11.75
2019-04-03T12:28:50.178Z,11.75
2019-04-03T12:31:18.612Z,11.78
2019-04-03T12:33:53.169Z,11.80
2019-04-03T12:36:16.532Z,11.85
2019-04-03T12:38:44.548Z,11.89
2019-04-03T12:41:12.539Z,11.94
2019-04-03T12:43:40.816Z,12.00
2019-04-03T12:46:08.977Z,12.04
2019-04-03T12:48:36.989Z,12.09
2019-04-03T12:51:05.446Z,12.11
2019-04-03T12:53:33.541Z,12.15
2019-04-03T12:56:01.946Z,12.18
2019-04-03T12:58:30.103Z,12.22
2019-04-03T13:00:58.180Z,12.24
2019-04-03T13:03:26.229Z,12.25
2019-04-03T13:05:55.962Z,12.27
2019-04-03T13:08:24.062Z,12.27
2019-04-03T13:10:52.359Z,12.28
2019-04-03T13:13:20.510Z,12.26
2019-04-03T13:15:48.592Z,12.26
2019-04-03T13:18:16.756Z,12.24
2019-04-03T13:20:44.806Z,12.22
2019-04-03T13:23:14.356Z,12.21
2019-04-03T13:25:43.235Z,12.19
2019-04-03T13:28:11.477Z,12.16
2019-04-03T13:30:43.150Z,12.13
2019-04-03T13:33:10.504Z,12.10
2019-04-03T13:35:38.760Z,12.07
2019-04-03T13:38:08.448Z,12.05
2019-04-03T13:40:38.422Z,12.04
2019-04-03T13:43:06.537Z,12.03
2019-04-03T13:45:34.600Z,12.01
2019-04-03T13:48:02.567Z,12.00
2019-04-03T13:50:30.617Z,11.98
2019-04-03T13:52:58.625Z,11.95
2019-04-03T13:55:28.860Z,11.93
2019-04-03T13:57:56.848Z,11.91
2019-04-03T14:00:25.463Z,11.88
2019-04-03T14:02:56.388Z,11.87
2019-04-03T14:05:26.627Z,11.86
2019-04-03T14:07:54.925Z,11.84
2019-04-03T14:10:26.477Z,11.82
2019-04-03T14:12:54.347Z,11.82
2019-04-03T14:15:22.458Z,11.81
2019-04-03T14:17:56.390Z,11.81
2019-04-03T14:20:22.927Z,11.79
2019-04-03T14:22:50.729Z,11.79
2019-04-03T14:25:22.305Z,11.75
2019-04-03T14:27:48.872Z,11.72
2019-04-03T14:30:17.735Z,11.68
2019-04-03T14:32:45.921Z,11.66
2019-04-03T14:35:44.580Z,11.63
2019-04-03T14:37:44.498Z,11.56
2019-04-03T14:40:13.475Z,11.45
2019-04-03T14:42:42.097Z,11.33
2019-04-03T14:45:13.359Z,11.27
2019-04-03T14:47:40.729Z,11.20
2019-04-03T14:50:10.638Z,11.17
2019-04-03T14:52:38.708Z,11.14
2019-04-03T14:55:23.407Z,11.07
2019-04-03T14:57:37.185Z,11.04
2019-04-03T15:00:23.510Z,11.02
2019-04-03T15:02:36.405Z,10.99
2019-04-03T15:05:07.361Z,10.94
2019-04-03T15:07:36.416Z,10.90
2019-04-03T15:10:06.261Z,10.85
2019-04-03T15:12:36.120Z,10.85
2019-04-03T15:15:05.777Z,10.84
2019-04-03T15:17:36.131Z,10.84
2019-04-03T15:20:08.700Z,10.80
2019-04-03T15:22:37.141Z,10.77
2019-04-03T15:25:05.274Z,10.74
2019-04-03T15:27:33.658Z,10.72
2019-04-03T15:30:02.741Z,10.70
2019-04-03T15:32:31.173Z,10.68
2019-04-03T15:34:59.768Z,10.65
2019-04-03T15:37:30.843Z,10.65
2019-04-03T15:40:20.298Z,10.62
2019-04-03T15:42:59.274Z,10.53
2019-04-03T15:45:31.184Z,10.41
2019-04-03T15:47:59.320Z,10.32
2019-04-03T15:50:28.564Z,10.26
2019-04-03T15:52:58.086Z,10.21
2019-04-03T15:55:27.280Z,10.15
2019-04-03T15:57:55.695Z,10.09
2019-04-03T16:00:28.400Z,10.06
2019-04-03T16:02:56.878Z,10.05
2019-04-03T16:05:25.444Z,10.02
2019-04-03T16:07:53.669Z,9.98
2019-04-03T16:10:23.241Z,9.91
2019-04-03T16:12:52.006Z,9.89
2019-04-03T16:15:22.437Z,9.87
2019-04-03T16:17:50.205Z,9.82
2019-04-03T16:20:18.369Z,9.73
2019-04-03T16:22:46.413Z,9.65
2019-04-03T16:25:16.761Z,9.62
2019-04-03T16:27:44.612Z,9.65
2019-04-03T16:30:15.800Z,9.67
2019-04-03T16:32:44.712Z,9.65
2019-04-03T16:35:14.497Z,9.65
2019-04-03T16:37:42.869Z,9.62
2019-04-03T16:40:12.626Z,9.61
2019-04-03T16:42:40.707Z,9.55
2019-04-03T16:45:10.589Z,9.51
2019-04-03T16:47:39.082Z,9.48
2019-04-03T16:50:10.103Z,9.43
2019-04-03T16:52:38.701Z,9.40
2019-04-03T16:55:07.237Z,9.38
2019-04-03T16:57:35.665Z,9.39
2019-04-03T17:00:07.618Z,9.39
2019-04-03T17:02:34.941Z,9.34
2019-04-03T17:05:03.703Z,9.32
2019-04-03T17:07:31.717Z,9.27
2019-04-03T17:09:59.698Z,9.24
2019-04-03T17:12:27.722Z,9.20
2019-04-03T17:14:56.478Z,9.14
2019-04-03T17:17:25.057Z,9.07
2019-04-03T17:19:53.147Z,9.06
2019-04-03T17:22:21.220Z,9.07
2019-04-03T17:24:53.517Z,9.07
2019-04-03T17:27:19.869Z,9.03
2019-04-03T17:29:48.371Z,9.00
2019-04-03T17:32:16.400Z,8.93
2019-04-03T17:34:44.389Z,8.91
2019-04-03T17:37:14.586Z,8.84
2019-04-03T17:39:42.595Z,8.79
2019-04-03T17:42:13.054Z,8.76
2019-04-03T17:44:41.106Z,8.75
2019-04-03T17:47:09.639Z,8.72
2019-04-03T17:49:37.820Z,8.65
2019-04-03T17:52:06.060Z,8.53
2019-04-03T17:54:34.203Z,8.46
2019-04-03T17:57:03.470Z,8.42
2019-04-03T17:59:31.681Z,8.40
2019-04-03T18:01:59.962Z,8.39
2019-04-03T18:04:28.052Z,8.37
2019-04-03T18:06:58.056Z,8.32
2019-04-03T18:09:26.522Z,8.29
2019-04-03T18:11:57.953Z,8.24
2019-04-03T18:14:36.148Z,8.21
2019-04-03T18:17:04.941Z,8.22
2019-04-03T18:19:37.765Z,8.18
2019-04-03T18:22:03.339Z,8.16
2019-04-03T18:24:33.104Z,8.14
2019-04-03T18:27:02.563Z,8.12
2019-04-03T18:29:32.824Z,8.10
2019-04-03T18:32:01.954Z,8.08
2019-04-03T18:34:30.011Z,8.04
2019-04-03T18:36:58.192Z,8.02
2019-04-03T18:39:26.492Z,8.06
2019-04-03T18:42:04.602Z,8.03
2019-04-03T18:44:33.176Z,7.99
2019-04-03T18:47:01.492Z,7.98
2019-04-03T18:49:30.627Z,7.95
2019-04-03T18:52:01.543Z,7.94
2019-04-03T18:54:29.740Z,7.94
2019-04-03T18:56:57.920Z,7.94
2019-04-03T18:59:26.477Z,7.96
2019-04-03T19:02:03.834Z,7.96
2019-04-03T19:04:37.417Z,7.94
2019-04-03T19:07:04.851Z,7.95
2019-04-03T19:09:41.893Z,7.92
2019-04-03T19:12:12.820Z,7.87
2019-04-03T19:14:42.704Z,7.82
2019-04-03T19:17:10.863Z,7.80
2019-04-03T19:19:38.874Z,7.80
2019-04-03T19:22:08.726Z,7.79
2019-04-03T19:24:38.055Z,7.76
2019-04-03T19:27:06.277Z,7.79
2019-04-03T19:29:35.765Z,7.76
2019-04-03T19:32:04.652Z,7.73
2019-04-03T19:34:32.922Z,7.72
2019-04-03T19:37:08.813Z,7.72
2019-04-03T19:39:37.701Z,7.70
2019-04-03T19:42:06.605Z,7.68
2019-04-03T19:44:34.959Z,7.66
2019-04-03T19:47:03.579Z,7.64
2019-04-03T19:49:32.070Z,7.63
2019-04-03T19:52:01.651Z,7.65
2019-04-03T19:54:29.848Z,7.64
2019-04-03T19:57:00.755Z,7.65
2019-04-03T19:59:30.993Z,7.64
2019-04-03T20:02:00.170Z,7.64
2019-04-03T20:04:33.895Z,7.64
2019-04-03T20:07:07.625Z,7.64
2019-04-03T20:09:39.451Z,7.65
2019-04-03T20:12:07.693Z,7.63
2019-04-03T20:14:37.379Z,7.63
2019-04-03T20:17:06.063Z,7.64
2019-04-03T20:19:35.637Z,7.63
2019-04-03T20:22:06.730Z,7.61
2019-04-03T20:24:33.680Z,7.61
2019-04-03T20:27:02.684Z,7.60
2019-04-03T20:29:31.840Z,7.58
2019-04-03T20:32:00.238Z,7.56
2019-04-03T20:34:28.674Z,7.59
2019-04-03T20:36:57.096Z,7.58
2019-04-03T20:39:25.129Z,7.59
2019-04-03T20:41:53.434Z,7.58
2019-04-03T20:44:21.443Z,7.56
2019-04-03T20:46:49.435Z,7.55
2019-04-03T20:49:17.515Z,7.55
2019-04-03T20:51:48.487Z,7.59
2019-04-03T20:54:15.895Z,7.61
2019-04-03T20:56:43.833Z,7.60
2019-04-03T20:59:12.210Z,7.60
2019-04-03T21:01:40.759Z,7.61
2019-04-03T21:04:09.117Z,7.62
2019-04-03T21:06:37.620Z,7.63
2019-04-03T21:09:09.307Z,7.62
2019-04-03T21:11:38.529Z,7.62
2019-04-03T21:14:06.765Z,7.61
2019-04-03T21:16:35.900Z,7.59
2019-04-03T21:19:03.956Z,7.59
2019-04-03T21:21:31.983Z,7.58
2019-04-03T21:24:00.011Z,7.60
2019-04-03T21:26:28.024Z,7.62
2019-04-03T21:28:56.337Z,7.64
2019-04-03T21:31:26.009Z,7.64
2019-04-03T21:33:54.300Z,7.66
2019-04-03T21:36:23.012Z,7.65
2019-04-03T21:38:51.247Z,7.67
2019-04-03T21:41:20.678Z,7.68
2019-04-03T21:43:49.391Z,7.70
2019-04-03T21:46:17.609Z,7.72
2019-04-03T21:48:45.587Z,7.75
2019-04-03T21:51:14.144Z,7.81
2019-04-03T21:53:42.162Z,7.85
2019-04-03T21:56:10.194Z,7.89
2019-04-03T21:58:39.714Z,7.93
2019-04-03T22:01:22.790Z,7.98
2019-04-03T22:03:51.698Z,8.03
2019-04-03T22:06:19.937Z,8.06
2019-04-03T22:08:47.980Z,8.09
2019-04-03T22:11:16.119Z,8.12
2019-04-03T22:13:44.924Z,8.16
2019-04-03T22:16:14.293Z,8.17
2019-04-03T22:18:42.302Z,8.18
2019-04-03T22:21:10.363Z,8.19
2019-04-03T22:23:38.386Z,8.19
2019-04-03T22:26:09.567Z,8.21
2019-04-03T22:28:36.365Z,8.24
2019-04-03T22:31:04.611Z,8.26
2019-04-03T22:33:32.627Z,8.27
2019-04-03T22:36:03.258Z,8.29
2019-04-03T22:38:31.677Z,8.27
2019-04-03T22:41:00.832Z,8.26
2019-04-03T22:43:28.826Z,8.26
2019-04-03T22:45:56.852Z,8.25
2019-04-03T22:48:26.753Z,8.24
2019-04-03T22:50:54.737Z,8.20
2019-04-03T22:53:22.727Z,8.18
2019-04-03T22:55:50.775Z,8.18
2019-04-03T22:58:19.032Z,8.17
2019-04-03T23:00:48.744Z,8.15
2019-04-03T23:03:16.843Z,8.16
2019-04-03T23:05:47.685Z,8.18
2019-04-03T23:08:16.236Z,8.16
2019-04-03T23:10:44.286Z,8.13
2019-04-03T23:13:12.294Z,8.10
2019-04-03T23:15:40.328Z,8.08
2019-04-03T23:18:08.362Z,8.07
2019-04-03T23:20:36.390Z,8.08
2019-04-03T23:23:04.364Z,8.09
2019-04-03T23:25:32.787Z,8.10
2019-04-03T23:28:03.140Z,8.11
2019-04-03T23:30:31.119Z,8.12
2019-04-03T23:32:59.140Z,8.12
2019-04-03T23:35:27.119Z,8.12
2019-04-03T23:37:55.791Z,8.11
2019-04-03T23:40:24.353Z,8.10
2019-04-03T23:42:52.383Z,8.08
2019-04-03T23:45:21.262Z,8.08
2019-04-03T23:47:49.312Z,8.08
2019-04-03T23:50:17.564Z,8.08
2019-04-03T23:52:46.674Z,8.08
2019-04-03T23:55:14.924Z,8.09
2019-04-03T23:57:42.969Z,8.09
